createdAt,value
2023-06-07T00:02:01.890Z,101665.75
2023-06-07T00:06:06.515Z,101659.91
2023-06-07T00:10:10.231Z,101663.34
2023-06-07T00:14:15.421Z,101664.94
2023-06-07T00:18:21.603Z,101660.34
2023-06-07T00:22:24.454Z,101663.66
2023-06-07T00:26:27.307Z,101659.53
2023-06-07T00:30:32.011Z,101667.94
2023-06-07T00:34:34.947Z,101666.44
2023-06-07T00:38:37.742Z,101659.66
2023-06-07T00:42:40.640Z,101660.34
2023-06-07T00:46:45.226Z,101661.66
2023-06-07T00:50:48.963Z,101658.03
2023-06-07T00:54:52.746Z,101657.13
2023-06-07T00:59:04.594Z,101662.50
2023-06-07T01:03:10.205Z,101653.19
2023-06-07T01:07:13.625Z,101663.06
2023-06-07T01:11:17.950Z,101654.53
2023-06-07T01:15:21.050Z,101657.28
2023-06-07T01:19:30.794Z,101650.06
2023-06-07T01:23:38.052Z,101641.00
2023-06-07T01:27:44.883Z,101642.16
2023-06-07T01:31:51.274Z,101640.16
2023-06-07T01:35:59.086Z,101634.25
2023-06-07T01:40:06.657Z,101644.84
2023-06-07T01:44:12.631Z,101637.88
2023-06-07T01:48:16.419Z,101644.28
2023-06-07T01:52:19.299Z,101641.94
2023-06-07T01:56:38.191Z,101642.59
2023-06-07T02:00:48.278Z,101650.56
2023-06-07T02:04:56.550Z,101650.72
2023-06-07T02:09:05.338Z,101641.69
2023-06-07T02:13:21.902Z,101646.38
2023-06-07T02:17:25.635Z,101642.25
2023-06-07T02:21:28.535Z,101644.47
2023-06-07T02:25:31.888Z,101650.41
2023-06-07T02:29:36.325Z,101645.88
2023-06-07T02:33:39.111Z,101661.94
2023-06-07T02:37:42.004Z,101645.25
2023-06-07T02:41:44.852Z,101654.56
2023-06-07T02:45:49.185Z,101649.06
2023-06-07T02:49:52.414Z,101652.63
2023-06-07T02:53:55.814Z,101649.19
2023-06-07T02:58:00.651Z,101643.97
2023-06-07T03:02:09.001Z,101642.53
2023-06-07T03:06:12.994Z,101655.88
2023-06-07T03:10:16.697Z,101652.66
2023-06-07T03:14:20.606Z,101661.25
2023-06-07T03:18:26.936Z,101650.66
2023-06-07T03:22:37.451Z,101652.31
2023-06-07T03:26:44.776Z,101653.41
2023-06-07T03:30:49.137Z,101650.81
2023-06-07T03:35:08.487Z,101663.16
2023-06-07T03:39:19.043Z,101657.53
2023-06-07T03:43:23.120Z,101659.31
2023-06-07T03:47:26.056Z,101663.97
2023-06-07T03:51:33.252Z,101662.66
2023-06-07T03:55:43.107Z,101664.63
2023-06-07T03:59:47.267Z,101657.81
2023-06-07T04:03:51.118Z,101651.78
2023-06-07T04:08:00.329Z,101654.50
2023-06-07T04:12:06.574Z,101656.41
2023-06-07T04:16:10.069Z,101665.34
2023-06-07T04:20:15.868Z,101663.66
2023-06-07T04:24:21.264Z,101662.09
2023-06-07T04:28:26.262Z,101661.19
2023-06-07T04:32:34.480Z,101657.25
2023-06-07T04:36:38.523Z,101665.59
2023-06-07T04:40:50.471Z,101673.91
2023-06-07T04:45:04.301Z,101673.78
2023-06-07T04:49:08.305Z,101674.81
2023-06-07T04:53:22.461Z,101677.53
2023-06-07T04:57:29.754Z,101673.97
2023-06-07T05:01:36.968Z,101669.44
2023-06-07T05:05:42.839Z,101659.66
2023-06-07T05:09:54.569Z,101673.59
2023-06-07T05:14:02.689Z,101669.31
2023-06-07T05:18:13.342Z,101667.66
2023-06-07T05:22:35.230Z,101672.31
2023-06-07T05:26:38.872Z,101663.00
2023-06-07T05:31:14.238Z,101664.84
2023-06-07T05:35:47.528Z,101667.44
2023-06-07T05:40:21.706Z,101670.34
2023-06-07T05:44:56.906Z,101665.69
2023-06-07T05:54:19.612Z,101694.97
2023-06-07T06:04:29.372Z,101690.88
2023-06-07T06:08:59.853Z,101689.22
2023-06-07T06:13:26.516Z,101691.66
2023-06-07T06:17:55.358Z,101692.66
2023-06-07T06:22:23.364Z,101698.09
2023-06-07T06:26:47.286Z,101706.72
2023-06-07T06:30:52.315Z,101704.63
2023-06-07T06:35:21.332Z,101704.84
2023-06-07T06:39:49.450Z,101718.19
2023-06-07T06:43:59.874Z,101709.78
2023-06-07T06:48:04.234Z,101710.69
2023-06-07T06:52:07.988Z,101707.75
2023-06-07T07:02:09.178Z,101732.03
2023-06-07T07:06:27.176Z,101728.31
2023-06-07T07:10:30.123Z,101735.34
2023-06-07T07:14:34.865Z,101730.53
2023-06-07T07:18:40.988Z,101740.06
2023-06-07T07:22:47.574Z,101747.34
2023-06-07T07:26:51.270Z,101741.38
2023-06-07T07:30:54.096Z,101752.25
2023-06-07T07:34:57.031Z,101756.91
2023-06-07T07:39:08.159Z,101756.41
2023-06-07T07:43:11.928Z,101751.09
2023-06-07T07:47:14.768Z,101751.91
2023-06-07T07:51:18.017Z,101749.69
2023-06-07T07:55:24.733Z,101752.59
2023-06-07T07:59:27.855Z,101754.56
2023-06-07T08:03:31.263Z,101742.78
2023-06-07T08:07:34.574Z,101744.97
2023-06-07T08:11:39.425Z,101739.81
2023-06-07T08:15:42.533Z,101741.97
2023-06-07T08:19:45.527Z,101734.41
2023-06-07T08:23:48.404Z,101721.63
2023-06-07T08:27:52.872Z,101733.34
2023-06-07T08:31:59.365Z,101728.94
2023-06-07T08:36:02.342Z,101732.38
2023-06-07T08:40:07.452Z,101721.56
2023-06-07T08:44:12.036Z,101723.06
2023-06-07T08:48:15.980Z,101726.75
2023-06-07T08:52:18.992Z,101720.28
2023-06-07T08:56:23.002Z,101728.56
2023-06-07T09:00:27.806Z,101727.81
2023-06-07T09:04:31.417Z,101718.19
2023-06-07T09:08:35.436Z,101718.75
2023-06-07T09:12:38.278Z,101717.94
2023-06-07T09:17:01.709Z,101721.47
2023-06-07T09:21:20.423Z,101728.59
2023-06-07T09:25:23.329Z,101733.56
2023-06-07T09:29:28.619Z,101725.28
2023-06-07T09:33:35.074Z,101726.94
2023-06-07T09:37:48.881Z,101716.41
2023-06-07T09:41:52.895Z,101721.41
2023-06-07T09:45:56.321Z,101726.63
2023-06-07T09:50:09.465Z,101726.91
2023-06-07T09:54:54.885Z,101715.53
2023-06-07T09:59:27.515Z,101728.66
2023-06-07T10:03:57.322Z,101718.75
2023-06-07T10:08:02.107Z,101717.75
2023-06-07T10:12:07.998Z,101715.78
2023-06-07T10:16:13.137Z,101718.72
2023-06-07T10:20:37.096Z,101705.31
2023-06-07T10:24:53.062Z,101695.13
2023-06-07T10:29:07.966Z,101694.97
2023-06-07T10:33:11.882Z,101697.41
2023-06-07T10:37:15.822Z,101683.88
2023-06-07T10:41:20.263Z,101684.09
2023-06-07T10:45:24.078Z,101692.13
2023-06-07T10:49:39.503Z,101685.31
2023-06-07T10:53:55.590Z,101691.13
2023-06-07T10:58:01.309Z,101690.31
2023-06-07T11:02:24.630Z,101688.59
2023-06-07T11:06:29.335Z,101682.81
2023-06-07T11:10:36.621Z,101686.78
2023-06-07T11:15:02.079Z,101680.50
2023-06-07T11:19:09.659Z,101680.97
2023-06-07T11:23:26.409Z,101672.72
2023-06-07T11:27:29.993Z,101660.38
2023-06-07T11:31:34.864Z,101665.03
2023-06-07T11:35:39.110Z,101667.31
2023-06-07T11:39:42.236Z,101661.63
2023-06-07T11:43:47.660Z,101658.34
2023-06-07T11:47:54.924Z,101645.50
2023-06-07T11:52:00.857Z,101648.47
2023-06-07T11:56:04.561Z,101651.56
2023-06-07T12:00:13.796Z,101651.34
2023-06-07T12:04:22.923Z,101645.03
2023-06-07T12:08:32.718Z,101640.06
2023-06-07T12:12:35.692Z,101642.56
2023-06-07T12:16:40.659Z,101640.00
2023-06-07T12:20:48.018Z,101623.28
2023-06-07T12:24:50.952Z,101626.94
2023-06-07T12:28:54.035Z,101622.41
2023-06-07T12:33:00.207Z,101624.53
2023-06-07T12:37:05.872Z,101616.91
2023-06-07T12:41:10.549Z,101611.38
2023-06-07T12:45:13.524Z,101615.63
2023-06-07T12:49:16.298Z,101609.09
2023-06-07T12:53:25.166Z,101600.47
2023-06-07T12:57:33.885Z,101605.25
2023-06-07T13:01:36.911Z,101586.47
2023-06-07T13:05:41.669Z,101581.69
2023-06-07T13:09:45.855Z,101575.09
2023-06-07T13:13:49.427Z,101578.88
2023-06-07T13:17:52.536Z,101569.72
2023-06-07T13:21:56.066Z,101566.28
2023-06-07T13:26:00.239Z,101564.66
2023-06-07T13:30:04.802Z,101565.63
2023-06-07T13:34:08.494Z,101554.19
2023-06-07T13:38:17.953Z,101547.03
2023-06-07T13:42:25.440Z,101544.59
2023-06-07T13:46:28.425Z,101535.44
2023-06-07T13:50:32.910Z,101542.09
2023-06-07T13:54:36.230Z,101538.97
2023-06-07T13:58:43.026Z,101533.47
2023-06-07T14:02:47.772Z,101533.72
2023-06-07T14:06:52.751Z,101515.78
2023-06-07T14:10:58.003Z,101518.03
2023-06-07T14:15:06.917Z,101509.84
2023-06-07T14:19:10.078Z,101512.06
2023-06-07T14:23:12.878Z,101503.84
2023-06-07T14:27:16.138Z,101498.88
2023-06-07T14:31:27.158Z,101491.25
2023-06-07T14:35:46.447Z,101484.69
2023-06-07T14:40:18.494Z,101486.38
2023-06-07T14:44:33.684Z,101473.97
2023-06-07T14:48:38.388Z,101475.09
2023-06-07T14:52:42.243Z,101472.69
2023-06-07T14:56:45.302Z,101471.88
2023-06-07T15:00:50.484Z,101464.56
2023-06-07T15:04:54.967Z,101464.09
2023-06-07T15:08:58.241Z,101455.44
2023-06-07T15:13:01.528Z,101460.00
2023-06-07T15:17:12.030Z,101468.69
2023-06-07T15:21:50.883Z,101465.31
2023-06-07T15:31:10.270Z,101452.03
2023-06-07T15:40:30.411Z,101449.88
2023-06-07T15:44:33.563Z,101448.88
2023-06-07T15:48:36.483Z,101446.41
2023-06-07T15:52:40.171Z,101447.78
2023-06-07T15:56:44.532Z,101432.34
2023-06-07T16:00:49.167Z,101431.22
2023-06-07T16:04:52.537Z,101440.41
2023-06-07T16:08:55.612Z,101431.38
2023-06-07T16:13:00.183Z,101428.91
2023-06-07T16:17:05.718Z,101423.50
2023-06-07T16:21:09.090Z,101413.66
2023-06-07T16:25:13.637Z,101421.00
2023-06-07T16:29:19.230Z,101416.72
2023-06-07T16:33:23.940Z,101416.16
2023-06-07T16:37:27.916Z,101419.25
2023-06-07T16:41:31.833Z,101420.28
2023-06-07T16:45:36.188Z,101416.41
2023-06-07T16:49:39.136Z,101422.84
2023-06-07T16:53:42.258Z,101430.88
2023-06-07T16:57:46.192Z,101437.75
2023-06-07T17:01:51.393Z,101439.47
2023-06-07T17:05:55.487Z,101433.00
2023-06-07T17:09:58.880Z,101431.41
2023-06-07T17:14:01.904Z,101436.38
2023-06-07T17:18:07.292Z,101430.16
2023-06-07T17:22:11.430Z,101438.78
2023-06-07T17:26:31.806Z,101436.94
2023-06-07T17:30:40.114Z,101424.88
2023-06-07T17:34:44.347Z,101434.91
2023-06-07T17:38:49.638Z,101429.28
2023-06-07T17:43:08.291Z,101423.28
2023-06-07T17:47:13.395Z,101427.53
2023-06-07T17:51:38.510Z,101435.66
2023-06-07T17:55:42.458Z,101433.63
2023-06-07T17:59:45.913Z,101425.72
2023-06-07T18:03:48.987Z,101436.78
2023-06-07T18:07:55.489Z,101431.78
2023-06-07T18:12:01.702Z,101436.56
2023-06-07T18:16:26.879Z,101441.50
2023-06-07T18:20:54.463Z,101447.16
2023-06-07T18:24:58.938Z,101445.44
2023-06-07T18:29:01.821Z,101449.81
2023-06-07T18:33:06.690Z,101453.63
2023-06-07T18:37:55.961Z,101463.59
2023-06-07T18:42:29.797Z,101462.25
2023-06-07T18:47:09.838Z,101455.84
2023-06-07T18:51:23.536Z,101462.09
2023-06-07T18:55:38.029Z,101469.28
2023-06-07T18:59:42.486Z,101470.63
2023-06-07T19:03:53.398Z,101475.16
2023-06-07T19:08:15.429Z,101485.34
2023-06-07T19:12:39.144Z,101476.16
2023-06-07T19:16:53.836Z,101481.78
2023-06-07T19:20:59.912Z,101483.25
2023-06-07T19:25:05.082Z,101491.00
2023-06-07T19:29:20.345Z,101490.22
2023-06-07T19:33:29.459Z,101483.97
2023-06-07T19:37:34.955Z,101485.75
2023-06-07T19:41:40.834Z,101476.75
2023-06-07T19:45:44.244Z,101481.78
2023-06-07T19:49:50.260Z,101485.88
2023-06-07T19:54:20.618Z,101485.41
2023-06-07T19:58:37.009Z,101479.94
2023-06-07T20:02:52.971Z,101491.19
2023-06-07T20:06:59.103Z,101500.84
2023-06-07T20:11:02.257Z,101498.72
2023-06-07T20:15:07.980Z,101486.91
2023-06-07T20:19:11.538Z,101491.13
2023-06-07T20:23:16.066Z,101497.03
2023-06-07T20:27:19.198Z,101501.78
2023-06-07T20:31:23.039Z,101513.91
2023-06-07T20:35:32.695Z,101505.97
2023-06-07T20:39:46.110Z,101502.44
2023-06-07T20:43:49.247Z,101510.47
2023-06-07T20:47:52.692Z,101521.78
2023-06-07T20:51:57.387Z,101537.56
2023-06-07T20:56:01.679Z,101511.88
2023-06-07T21:00:07.096Z,101523.22
2023-06-07T21:04:10.839Z,101525.16
2023-06-07T21:08:26.497Z,101522.97
2023-06-07T21:12:54.711Z,101511.41
2023-06-07T21:17:22.635Z,101508.69
2023-06-07T21:21:42.569Z,101504.53
2023-06-07T21:25:46.356Z,101510.06
2023-06-07T21:29:51.802Z,101501.75
2023-06-07T21:34:01.162Z,101511.41
2023-06-07T21:38:17.536Z,101515.81
2023-06-07T21:42:51.453Z,101514.94
2023-06-07T21:52:30.650Z,101518.22
2023-06-07T21:57:01.721Z,101520.94
2023-06-07T22:01:26.561Z,101522.00
2023-06-07T22:05:35.343Z,101511.25
2023-06-07T22:09:39.725Z,101525.84
2023-06-07T22:13:45.684Z,101524.19
2023-06-07T22:17:54.645Z,101512.91
2023-06-07T22:21:57.672Z,101527.19
2023-06-07T22:26:02.118Z,101518.94
2023-06-07T22:30:18.855Z,101523.06
2023-06-07T22:34:45.830Z,101524.69
2023-06-07T22:39:10.220Z,101530.06
2023-06-07T22:43:26.472Z,101519.06
2023-06-07T22:47:35.727Z,101529.81
2023-06-07T22:51:41.913Z,101522.38
2023-06-07T22:55:47.320Z,101524.28
2023-06-07T22:59:53.275Z,101520.41
2023-06-07T23:03:56.727Z,101518.75
2023-06-07T23:08:00.731Z,101523.94
2023-06-07T23:12:05.982Z,101515.66
2023-06-07T23:16:10.117Z,101527.19
2023-06-07T23:20:13.911Z,101518.91
2023-06-07T23:24:22.270Z,101510.34
2023-06-07T23:28:25.109Z,101513.38
2023-06-07T23:32:30.789Z,101508.88
2023-06-07T23:36:33.969Z,101514.09
2023-06-07T23:40:37.502Z,101498.94
2023-06-07T23:44:40.268Z,101509.09
2023-06-07T23:48:45.232Z,101501.25
2023-06-07T23:52:49.579Z,101506.34
2023-06-07T23:56:52.572Z,101507.13
